sensor_id;sensor_type;location;lat;lon;timestamp;P1;durP1;ratioP1;P2;durP2;ratioP2
64799;SDS011;51233;51.982;4.594;2023-05-10T00:00:33;14.10;;;12.32;;
64799;SDS011;51233;51.982;4.594;2023-05-10T00:03:33;15.73;;;13.07;;
64799;SDS011;51233;51.982;4.594;2023-05-10T00:06:33;15.03;;;12.40;;
64799;SDS011;51233;51.982;4.594;2023-05-10T00:09:34;15.37;;;11.57;;
64799;SDS011;51233;51.982;4.594;2023-05-10T00:12:34;14.77;;;12.90;;
64799;SDS011;51233;51.982;4.594;2023-05-10T00:15:34;15.40;;;12.88;;
64799;SDS011;51233;51.982;4.594;2023-05-10T00:18:37;13.93;;;12.40;;
64799;SDS011;51233;51.982;4.594;2023-05-10T00:21:37;18.23;;;11.05;;
64799;SDS011;51233;51.982;4.594;2023-05-10T00:24:38;15.45;;;12.30;;
64799;SDS011;51233;51.982;4.594;2023-05-10T00:27:38;16.98;;;12.02;;
64799;SDS011;51233;51.982;4.594;2023-05-10T00:30:38;16.60;;;12.40;;
64799;SDS011;51233;51.982;4.594;2023-05-10T00:33:38;16.95;;;13.63;;
64799;SDS011;51233;51.982;4.594;2023-05-10T00:36:38;19.48;;;13.00;;
64799;SDS011;51233;51.982;4.594;2023-05-10T00:39:38;16.80;;;14.00;;
64799;SDS011;51233;51.982;4.594;2023-05-10T00:42:39;15.40;;;11.75;;
64799;SDS011;51233;51.982;4.594;2023-05-10T00:45:39;13.40;;;11.23;;
64799;SDS011;51233;51.982;4.594;2023-05-10T00:48:39;12.47;;;10.60;;
64799;SDS011;51233;51.982;4.594;2023-05-10T00:51:40;13.73;;;11.70;;
64799;SDS011;51233;51.982;4.594;2023-05-10T00:54:42;11.60;;;9.88;;
64799;SDS011;51233;51.982;4.594;2023-05-10T00:57:42;11.20;;;10.03;;
64799;SDS011;51233;51.982;4.594;2023-05-10T01:00:43;12.00;;;10.80;;
64799;SDS011;51233;51.982;4.594;2023-05-10T01:03:46;15.05;;;11.77;;
64799;SDS011;51233;51.982;4.594;2023-05-10T01:06:46;12.40;;;10.67;;
64799;SDS011;51233;51.982;4.594;2023-05-10T01:09:47;14.47;;;11.53;;
64799;SDS011;51233;51.982;4.594;2023-05-10T01:12:47;15.63;;;13.17;;
64799;SDS011;51233;51.982;4.594;2023-05-10T01:15:48;23.03;;;17.43;;
64799;SDS011;51233;51.982;4.594;2023-05-10T01:18:48;22.17;;;16.70;;
64799;SDS011;51233;51.982;4.594;2023-05-10T01:25:10;27.30;;;16.67;;
64799;SDS011;51233;51.982;4.594;2023-05-10T01:44:04;24.23;;;15.97;;
64799;SDS011;51233;51.982;4.594;2023-05-10T01:47:07;23.40;;;17.40;;
64799;SDS011;51233;51.982;4.594;2023-05-10T01:50:17;23.27;;;16.27;;
64799;SDS011;51233;51.982;4.594;2023-05-10T01:53:18;23.05;;;16.98;;
64799;SDS011;51233;51.982;4.594;2023-05-10T01:56:20;23.17;;;15.55;;
64799;SDS011;51233;51.982;4.594;2023-05-10T01:59:28;21.45;;;14.93;;
64799;SDS011;51233;51.982;4.594;2023-05-10T02:02:29;24.17;;;15.82;;
64799;SDS011;51233;51.982;4.594;2023-05-10T02:05:33;25.05;;;15.90;;
64799;SDS011;51233;51.982;4.594;2023-05-10T02:08:34;21.00;;;15.30;;
64799;SDS011;51233;51.982;4.594;2023-05-10T02:11:37;25.05;;;15.27;;
64799;SDS011;51233;51.982;4.594;2023-05-10T02:14:37;25.70;;;15.45;;
64799;SDS011;51233;51.982;4.594;2023-05-10T02:17:39;20.70;;;14.93;;
64799;SDS011;51233;51.982;4.594;2023-05-10T02:20:39;23.93;;;15.73;;
64799;SDS011;51233;51.982;4.594;2023-05-10T02:23:45;25.65;;;15.88;;
64799;SDS011;51233;51.982;4.594;2023-05-10T02:26:46;23.25;;;14.23;;
64799;SDS011;51233;51.982;4.594;2023-05-10T02:29:47;25.07;;;15.83;;
64799;SDS011;51233;51.982;4.594;2023-05-10T02:32:48;21.03;;;13.23;;
64799;SDS011;51233;51.982;4.594;2023-05-10T02:35:50;18.55;;;12.25;;
64799;SDS011;51233;51.982;4.594;2023-05-10T02:38:50;19.55;;;10.57;;
64799;SDS011;51233;51.982;4.594;2023-05-10T02:41:51;16.17;;;10.23;;
64799;SDS011;51233;51.982;4.594;2023-05-10T02:44:56;17.38;;;10.63;;
64799;SDS011;51233;51.982;4.594;2023-05-10T02:47:59;14.43;;;9.73;;
64799;SDS011;51233;51.982;4.594;2023-05-10T02:51:00;9.70;;;6.53;;
64799;SDS011;51233;51.982;4.594;2023-05-10T02:54:06;14.82;;;8.88;;
64799;SDS011;51233;51.982;4.594;2023-05-10T02:57:07;11.80;;;7.30;;
64799;SDS011;51233;51.982;4.594;2023-05-10T03:00:08;23.65;;;10.68;;
64799;SDS011;51233;51.982;4.594;2023-05-10T03:03:09;22.13;;;11.50;;
64799;SDS011;51233;51.982;4.594;2023-05-10T03:06:09;15.07;;;7.60;;
64799;SDS011;51233;51.982;4.594;2023-05-10T03:09:10;15.40;;;10.73;;
64799;SDS011;51233;51.982;4.594;2023-05-10T03:12:31;18.13;;;11.15;;
64799;SDS011;51233;51.982;4.594;2023-05-10T03:21:44;21.75;;;12.15;;
64799;SDS011;51233;51.982;4.594;2023-05-10T03:24:47;15.35;;;9.88;;
64799;SDS011;51233;51.982;4.594;2023-05-10T03:27:48;13.68;;;9.25;;
64799;SDS011;51233;51.982;4.594;2023-05-10T03:30:48;20.33;;;12.67;;
64799;SDS011;51233;51.982;4.594;2023-05-10T03:33:49;10.67;;;7.43;;
64799;SDS011;51233;51.982;4.594;2023-05-10T03:36:50;19.20;;;12.47;;
64799;SDS011;51233;51.982;4.594;2023-05-10T03:39:50;20.63;;;13.37;;
64799;SDS011;51233;51.982;4.594;2023-05-10T03:42:50;21.43;;;14.20;;
64799;SDS011;51233;51.982;4.594;2023-05-10T03:45:50;15.40;;;11.97;;
64799;SDS011;51233;51.982;4.594;2023-05-10T03:48:53;16.40;;;12.88;;
64799;SDS011;51233;51.982;4.594;2023-05-10T03:51:53;15.25;;;10.82;;
64799;SDS011;51233;51.982;4.594;2023-05-10T03:54:54;19.53;;;14.43;;
64799;SDS011;51233;51.982;4.594;2023-05-10T03:57:54;17.73;;;14.03;;
64799;SDS011;51233;51.982;4.594;2023-05-10T04:00:54;17.63;;;11.33;;
64799;SDS011;51233;51.982;4.594;2023-05-10T04:03:55;17.87;;;12.00;;
64799;SDS011;51233;51.982;4.594;2023-05-10T04:06:55;17.63;;;14.13;;
64799;SDS011;51233;51.982;4.594;2023-05-10T04:09:56;18.40;;;12.40;;
64799;SDS011;51233;51.982;4.594;2023-05-10T04:12:56;22.20;;;14.70;;
64799;SDS011;51233;51.982;4.594;2023-05-10T04:15:57;21.63;;;14.80;;
64799;SDS011;51233;51.982;4.594;2023-05-10T04:18:57;21.17;;;14.27;;
64799;SDS011;51233;51.982;4.594;2023-05-10T04:21:57;17.20;;;13.93;;
64799;SDS011;51233;51.982;4.594;2023-05-10T04:24:57;12.37;;;10.00;;
64799;SDS011;51233;51.982;4.594;2023-05-10T04:27:58;12.43;;;9.52;;
64799;SDS011;51233;51.982;4.594;2023-05-10T04:31:01;17.85;;;14.68;;
64799;SDS011;51233;51.982;4.594;2023-05-10T04:34:02;19.40;;;15.60;;
64799;SDS011;51233;51.982;4.594;2023-05-10T04:37:02;13.93;;;10.97;;
64799;SDS011;51233;51.982;4.594;2023-05-10T04:40:03;16.93;;;13.50;;
64799;SDS011;51233;51.982;4.594;2023-05-10T04:43:03;18.00;;;14.87;;
64799;SDS011;51233;51.982;4.594;2023-05-10T04:46:04;20.03;;;14.33;;
64799;SDS011;51233;51.982;4.594;2023-05-10T04:49:04;20.67;;;14.73;;
64799;SDS011;51233;51.982;4.594;2023-05-10T04:52:05;22.60;;;15.93;;
64799;SDS011;51233;51.982;4.594;2023-05-10T04:55:06;20.97;;;15.03;;
64799;SDS011;51233;51.982;4.594;2023-05-10T04:58:09;25.02;;;14.68;;
64799;SDS011;51233;51.982;4.594;2023-05-10T05:01:09;23.77;;;17.33;;
64799;SDS011;51233;51.982;4.594;2023-05-10T05:04:10;19.40;;;14.10;;
64799;SDS011;51233;51.982;4.594;2023-05-10T05:07:10;20.90;;;15.10;;
64799;SDS011;51233;51.982;4.594;2023-05-10T05:10:11;24.20;;;14.52;;
64799;SDS011;51233;51.982;4.594;2023-05-10T05:13:12;23.10;;;14.00;;
64799;SDS011;51233;51.982;4.594;2023-05-10T05:16:12;16.52;;;10.65;;
64799;SDS011;51233;51.982;4.594;2023-05-10T05:19:12;15.13;;;11.27;;
64799;SDS011;51233;51.982;4.594;2023-05-10T05:22:13;13.73;;;9.77;;
64799;SDS011;51233;51.982;4.594;2023-05-10T05:25:13;9.52;;;8.10;;
64799;SDS011;51233;51.982;4.594;2023-05-10T05:28:13;11.13;;;7.50;;
64799;SDS011;51233;51.982;4.594;2023-05-10T05:31:13;11.67;;;7.83;;
64799;SDS011;51233;51.982;4.594;2023-05-10T05:34:17;11.07;;;7.72;;
64799;SDS011;51233;51.982;4.594;2023-05-10T05:37:18;10.07;;;7.17;;
64799;SDS011;51233;51.982;4.594;2023-05-10T05:40:19;8.13;;;6.00;;
64799;SDS011;51233;51.982;4.594;2023-05-10T05:43:20;5.88;;;5.05;;
64799;SDS011;51233;51.982;4.594;2023-05-10T05:46:20;5.47;;;4.57;;
64799;SDS011;51233;51.982;4.594;2023-05-10T05:49:23;4.40;;;4.00;;
64799;SDS011;51233;51.982;4.594;2023-05-10T05:52:23;3.70;;;3.40;;
64799;SDS011;51233;51.982;4.594;2023-05-10T05:55:23;3.20;;;2.90;;
64799;SDS011;51233;51.982;4.594;2023-05-10T06:01:25;2.72;;;2.53;;
64799;SDS011;51233;51.982;4.594;2023-05-10T06:04:26;1.70;;;1.60;;
64799;SDS011;51233;51.982;4.594;2023-05-10T06:07:26;2.33;;;2.23;;
64799;SDS011;51233;51.982;4.594;2023-05-10T06:10:26;2.60;;;2.40;;
64799;SDS011;51233;51.982;4.594;2023-05-10T06:13:26;2.53;;;2.33;;
64799;SDS011;51233;51.982;4.594;2023-05-10T06:16:32;2.90;;;2.22;;
64799;SDS011;51233;51.982;4.594;2023-05-10T06:19:32;2.43;;;2.23;;
64799;SDS011;51233;51.982;4.594;2023-05-10T06:22:32;3.15;;;2.30;;
64799;SDS011;51233;51.982;4.594;2023-05-10T06:25:32;2.92;;;2.72;;
64799;SDS011;51233;51.982;4.594;2023-05-10T06:28:35;2.92;;;2.72;;
64799;SDS011;51233;51.982;4.594;2023-05-10T06:31:38;3.15;;;2.95;;
64799;SDS011;51233;51.982;4.594;2023-05-10T06:34:38;6.97;;;3.58;;
64799;SDS011;51233;51.982;4.594;2023-05-10T06:37:38;3.17;;;2.87;;
64799;SDS011;51233;51.982;4.594;2023-05-10T06:40:42;2.90;;;2.70;;
64799;SDS011;51233;51.982;4.594;2023-05-10T06:43:42;3.00;;;2.80;;
64799;SDS011;51233;51.982;4.594;2023-05-10T06:46:43;4.23;;;3.37;;
64799;SDS011;51233;51.982;4.594;2023-05-10T06:49:43;3.83;;;3.50;;
64799;SDS011;51233;51.982;4.594;2023-05-10T06:52:46;3.47;;;3.13;;
64799;SDS011;51233;51.982;4.594;2023-05-10T06:55:46;3.53;;;3.28;;
64799;SDS011;51233;51.982;4.594;2023-05-10T06:58:47;3.90;;;3.70;;
64799;SDS011;51233;51.982;4.594;2023-05-10T07:01:47;4.13;;;3.73;;
64799;SDS011;51233;51.982;4.594;2023-05-10T07:04:48;3.40;;;3.20;;
64799;SDS011;51233;51.982;4.594;2023-05-10T07:07:48;6.03;;;3.27;;
64799;SDS011;51233;51.982;4.594;2023-05-10T07:10:48;4.15;;;3.85;;
64799;SDS011;51233;51.982;4.594;2023-05-10T07:13:51;3.50;;;3.20;;
64799;SDS011;51233;51.982;4.594;2023-05-10T07:16:54;4.10;;;3.80;;
64799;SDS011;51233;51.982;4.594;2023-05-10T07:19:58;3.60;;;3.30;;
64799;SDS011;51233;51.982;4.594;2023-05-10T07:23:01;3.20;;;3.00;;
64799;SDS011;51233;51.982;4.594;2023-05-10T07:26:01;3.55;;;3.25;;
64799;SDS011;51233;51.982;4.594;2023-05-10T07:29:02;3.50;;;3.30;;
64799;SDS011;51233;51.982;4.594;2023-05-10T07:32:02;3.30;;;3.10;;
64799;SDS011;51233;51.982;4.594;2023-05-10T07:35:05;3.50;;;3.20;;
64799;SDS011;51233;51.982;4.594;2023-05-10T07:38:06;4.40;;;3.85;;
64799;SDS011;51233;51.982;4.594;2023-05-10T07:41:07;3.93;;;3.50;;
64799;SDS011;51233;51.982;4.594;2023-05-10T07:44:07;4.60;;;3.72;;
64799;SDS011;51233;51.982;4.594;2023-05-10T07:47:07;3.50;;;3.17;;
64799;SDS011;51233;51.982;4.594;2023-05-10T07:50:07;4.63;;;3.13;;
64799;SDS011;51233;51.982;4.594;2023-05-10T07:53:08;4.37;;;3.87;;
64799;SDS011;51233;51.982;4.594;2023-05-10T07:56:23;4.05;;;3.75;;
64799;SDS011;51233;51.982;4.594;2023-05-10T07:59:25;5.57;;;4.40;;
64799;SDS011;51233;51.982;4.594;2023-05-10T08:02:25;4.43;;;4.03;;
64799;SDS011;51233;51.982;4.594;2023-05-10T08:05:25;4.57;;;4.18;;
64799;SDS011;51233;51.982;4.594;2023-05-10T08:08:25;5.60;;;4.50;;
64799;SDS011;51233;51.982;4.594;2023-05-10T08:11:25;6.77;;;4.30;;
64799;SDS011;51233;51.982;4.594;2023-05-10T08:14:28;5.63;;;4.10;;
64799;SDS011;51233;51.982;4.594;2023-05-10T08:17:28;4.00;;;3.60;;
64799;SDS011;51233;51.982;4.594;2023-05-10T08:20:28;6.23;;;3.90;;
64799;SDS011;51233;51.982;4.594;2023-05-10T08:23:31;5.07;;;3.88;;
64799;SDS011;51233;51.982;4.594;2023-05-10T08:26:32;4.47;;;4.03;;
64799;SDS011;51233;51.982;4.594;2023-05-10T08:29:32;8.53;;;3.80;;
64799;SDS011;51233;51.982;4.594;2023-05-10T08:32:32;4.93;;;3.67;;
64799;SDS011;51233;51.982;4.594;2023-05-10T08:35:32;4.40;;;3.83;;
64799;SDS011;51233;51.982;4.594;2023-05-10T08:38:34;3.97;;;3.33;;
64799;SDS011;51233;51.982;4.594;2023-05-10T08:41:35;4.33;;;4.00;;
64799;SDS011;51233;51.982;4.594;2023-05-10T08:44:36;4.93;;;3.25;;
64799;SDS011;51233;51.982;4.594;2023-05-10T08:47:37;5.57;;;3.67;;
64799;SDS011;51233;51.982;4.594;2023-05-10T08:50:38;4.30;;;3.13;;
64799;SDS011;51233;51.982;4.594;2023-05-10T08:53:39;6.25;;;3.10;;
64799;SDS011;51233;51.982;4.594;2023-05-10T08:56:39;3.90;;;3.20;;
64799;SDS011;51233;51.982;4.594;2023-05-10T08:59:40;2.63;;;2.43;;
64799;SDS011;51233;51.982;4.594;2023-05-10T09:02:42;3.20;;;2.90;;
64799;SDS011;51233;51.982;4.594;2023-05-10T09:05:44;6.80;;;3.03;;
64799;SDS011;51233;51.982;4.594;2023-05-10T09:08:44;4.80;;;2.97;;
64799;SDS011;51233;51.982;4.594;2023-05-10T09:11:45;3.37;;;2.60;;
64799;SDS011;51233;51.982;4.594;2023-05-10T09:14:45;3.13;;;2.63;;
64799;SDS011;51233;51.982;4.594;2023-05-10T09:17:46;3.37;;;2.67;;
64799;SDS011;51233;51.982;4.594;2023-05-10T09:20:47;2.70;;;2.50;;
64799;SDS011;51233;51.982;4.594;2023-05-10T09:23:48;3.70;;;2.28;;
64799;SDS011;51233;51.982;4.594;2023-05-10T09:29:50;1.92;;;1.80;;
64799;SDS011;51233;51.982;4.594;2023-05-10T09:32:54;2.72;;;2.45;;
64799;SDS011;51233;51.982;4.594;2023-05-10T09:35:55;1.80;;;1.30;;
64799;SDS011;51233;51.982;4.594;2023-05-10T09:38:55;2.27;;;1.93;;
64799;SDS011;51233;51.982;4.594;2023-05-10T09:41:55;2.27;;;2.13;;
64799;SDS011;51233;51.982;4.594;2023-05-10T09:44:59;2.50;;;2.37;;
64799;SDS011;51233;51.982;4.594;2023-05-10T09:48:00;3.30;;;2.90;;
64799;SDS011;51233;51.982;4.594;2023-05-10T09:51:01;3.20;;;2.90;;
64799;SDS011;51233;51.982;4.594;2023-05-10T09:54:08;3.17;;;2.90;;
64799;SDS011;51233;51.982;4.594;2023-05-10T09:57:18;2.40;;;2.20;;
64799;SDS011;51233;51.982;4.594;2023-05-10T10:00:19;2.92;;;2.67;;
64799;SDS011;51233;51.982;4.594;2023-05-10T10:03:20;3.97;;;3.40;;
64799;SDS011;51233;51.982;4.594;2023-05-10T10:06:20;5.55;;;3.08;;
64799;SDS011;51233;51.982;4.594;2023-05-10T10:09:20;3.33;;;2.78;;
64799;SDS011;51233;51.982;4.594;2023-05-10T10:12:20;3.73;;;3.30;;
64799;SDS011;51233;51.982;4.594;2023-05-10T10:15:21;5.00;;;3.70;;
64799;SDS011;51233;51.982;4.594;2023-05-10T10:18:21;4.20;;;3.80;;
64799;SDS011;51233;51.982;4.594;2023-05-10T10:21:26;3.70;;;3.40;;
64799;SDS011;51233;51.982;4.594;2023-05-10T10:24:27;3.50;;;3.20;;
64799;SDS011;51233;51.982;4.594;2023-05-10T10:30:51;5.10;;;3.55;;
64799;SDS011;51233;51.982;4.594;2023-05-10T10:36:56;2.70;;;2.47;;
64799;SDS011;51233;51.982;4.594;2023-05-10T10:39:57;3.67;;;3.00;;
64799;SDS011;51233;51.982;4.594;2023-05-10T10:42:57;3.10;;;2.80;;
64799;SDS011;51233;51.982;4.594;2023-05-10T10:46:16;3.83;;;2.60;;
64799;SDS011;51233;51.982;4.594;2023-05-10T10:49:17;4.65;;;3.50;;
64799;SDS011;51233;51.982;4.594;2023-05-10T10:52:36;4.30;;;3.58;;
64799;SDS011;51233;51.982;4.594;2023-05-10T10:55:40;4.68;;;4.07;;
64799;SDS011;51233;51.982;4.594;2023-05-10T10:58:48;4.80;;;3.83;;
64799;SDS011;51233;51.982;4.594;2023-05-10T11:01:51;4.07;;;3.78;;
64799;SDS011;51233;51.982;4.594;2023-05-10T11:04:51;6.75;;;4.65;;
64799;SDS011;51233;51.982;4.594;2023-05-10T11:07:55;4.03;;;3.08;;
64799;SDS011;51233;51.982;4.594;2023-05-10T11:14:03;3.10;;;2.90;;
64799;SDS011;51233;51.982;4.594;2023-05-10T11:17:21;2.70;;;2.50;;
64799;SDS011;51233;51.982;4.594;2023-05-10T11:20:22;4.78;;;2.95;;
64799;SDS011;51233;51.982;4.594;2023-05-10T11:23:29;4.63;;;2.85;;
64799;SDS011;51233;51.982;4.594;2023-05-10T11:26:31;3.20;;;2.90;;
64799;SDS011;51233;51.982;4.594;2023-05-10T11:29:31;2.95;;;2.70;;
64799;SDS011;51233;51.982;4.594;2023-05-10T11:32:32;2.60;;;2.40;;
64799;SDS011;51233;51.982;4.594;2023-05-10T11:35:38;3.20;;;2.90;;
64799;SDS011;51233;51.982;4.594;2023-05-10T11:38:39;5.20;;;3.33;;
64799;SDS011;51233;51.982;4.594;2023-05-10T11:41:39;2.43;;;2.30;;
64799;SDS011;51233;51.982;4.594;2023-05-10T11:44:40;3.73;;;3.40;;
64799;SDS011;51233;51.982;4.594;2023-05-10T11:47:40;4.00;;;3.33;;
64799;SDS011;51233;51.982;4.594;2023-05-10T11:50:45;3.80;;;3.17;;
64799;SDS011;51233;51.982;4.594;2023-05-10T11:53:46;2.85;;;2.58;;
64799;SDS011;51233;51.982;4.594;2023-05-10T11:56:46;2.95;;;2.70;;
64799;SDS011;51233;51.982;4.594;2023-05-10T11:59:46;3.30;;;2.50;;
64799;SDS011;51233;51.982;4.594;2023-05-10T12:02:47;4.20;;;2.90;;
64799;SDS011;51233;51.982;4.594;2023-05-10T12:05:47;3.00;;;2.73;;
64799;SDS011;51233;51.982;4.594;2023-05-10T12:08:48;2.23;;;2.13;;
64799;SDS011;51233;51.982;4.594;2023-05-10T12:11:54;1.98;;;1.88;;
64799;SDS011;51233;51.982;4.594;2023-05-10T12:14:55;4.38;;;2.75;;
64799;SDS011;51233;51.982;4.594;2023-05-10T12:17:55;4.28;;;3.15;;
64799;SDS011;51233;51.982;4.594;2023-05-10T12:21:02;4.15;;;3.17;;
64799;SDS011;51233;51.982;4.594;2023-05-10T12:24:03;4.75;;;3.55;;
64799;SDS011;51233;51.982;4.594;2023-05-10T12:27:05;5.75;;;3.17;;
64799;SDS011;51233;51.982;4.594;2023-05-10T12:30:08;4.43;;;3.10;;
64799;SDS011;51233;51.982;4.594;2023-05-10T12:33:09;5.13;;;3.40;;
64799;SDS011;51233;51.982;4.594;2023-05-10T12:39:10;5.15;;;3.17;;
64799;SDS011;51233;51.982;4.594;2023-05-10T12:42:16;5.50;;;3.17;;
64799;SDS011;51233;51.982;4.594;2023-05-10T12:45:17;4.82;;;4.20;;
64799;SDS011;51233;51.982;4.594;2023-05-10T12:48:17;7.13;;;4.77;;
64799;SDS011;51233;51.982;4.594;2023-05-10T12:51:17;5.57;;;3.40;;
64799;SDS011;51233;51.982;4.594;2023-05-10T12:54:21;4.68;;;3.63;;
64799;SDS011;51233;51.982;4.594;2023-05-10T12:57:22;3.67;;;2.47;;
64799;SDS011;51233;51.982;4.594;2023-05-10T13:00:22;2.67;;;2.43;;
64799;SDS011;51233;51.982;4.594;2023-05-10T13:03:22;4.40;;;3.43;;
64799;SDS011;51233;51.982;4.594;2023-05-10T13:06:22;2.63;;;2.23;;
64799;SDS011;51233;51.982;4.594;2023-05-10T13:09:23;4.17;;;3.43;;
64799;SDS011;51233;51.982;4.594;2023-05-10T13:12:23;6.53;;;3.97;;
64799;SDS011;51233;51.982;4.594;2023-05-10T13:15:23;2.90;;;2.50;;
64799;SDS011;51233;51.982;4.594;2023-05-10T13:18:23;3.80;;;3.50;;
64799;SDS011;51233;51.982;4.594;2023-05-10T13:21:24;2.60;;;2.40;;
64799;SDS011;51233;51.982;4.594;2023-05-10T13:24:25;3.17;;;2.87;;
64799;SDS011;51233;51.982;4.594;2023-05-10T13:27:25;5.17;;;3.00;;
64799;SDS011;51233;51.982;4.594;2023-05-10T13:30:28;2.47;;;2.22;;
64799;SDS011;51233;51.982;4.594;2023-05-10T13:33:28;4.97;;;3.17;;
64799;SDS011;51233;51.982;4.594;2023-05-10T13:36:29;3.23;;;2.40;;
64799;SDS011;51233;51.982;4.594;2023-05-10T13:39:29;4.60;;;2.75;;
64799;SDS011;51233;51.982;4.594;2023-05-10T13:42:33;3.80;;;2.78;;
64799;SDS011;51233;51.982;4.594;2023-05-10T13:45:33;2.53;;;2.10;;
64799;SDS011;51233;51.982;4.594;2023-05-10T13:48:33;2.13;;;1.95;;
64799;SDS011;51233;51.982;4.594;2023-05-10T13:51:34;5.30;;;2.97;;
64799;SDS011;51233;51.982;4.594;2023-05-10T13:54:34;4.27;;;2.83;;
64799;SDS011;51233;51.982;4.594;2023-05-10T13:57:35;3.38;;;2.80;;
64799;SDS011;51233;51.982;4.594;2023-05-10T14:00:35;7.80;;;2.90;;
64799;SDS011;51233;51.982;4.594;2023-05-10T14:03:38;2.53;;;2.20;;
64799;SDS011;51233;51.982;4.594;2023-05-10T14:06:38;2.92;;;2.55;;
64799;SDS011;51233;51.982;4.594;2023-05-10T14:09:38;3.10;;;2.80;;
64799;SDS011;51233;51.982;4.594;2023-05-10T14:12:38;1.95;;;1.85;;
64799;SDS011;51233;51.982;4.594;2023-05-10T14:15:39;4.87;;;3.00;;
64799;SDS011;51233;51.982;4.594;2023-05-10T14:18:39;2.20;;;1.67;;
64799;SDS011;51233;51.982;4.594;2023-05-10T14:21:48;2.78;;;2.42;;
64799;SDS011;51233;51.982;4.594;2023-05-10T14:24:49;4.03;;;2.45;;
64799;SDS011;51233;51.982;4.594;2023-05-10T14:27:50;1.70;;;1.60;;
64799;SDS011;51233;51.982;4.594;2023-05-10T14:30:50;3.40;;;2.80;;
64799;SDS011;51233;51.982;4.594;2023-05-10T14:33:51;1.73;;;1.63;;
64799;SDS011;51233;51.982;4.594;2023-05-10T14:36:51;2.30;;;2.10;;
64799;SDS011;51233;51.982;4.594;2023-05-10T14:39:51;2.50;;;2.00;;
64799;SDS011;51233;51.982;4.594;2023-05-10T14:42:52;2.60;;;2.30;;
64799;SDS011;51233;51.982;4.594;2023-05-10T14:45:52;2.37;;;2.17;;
64799;SDS011;51233;51.982;4.594;2023-05-10T14:48:53;3.10;;;2.67;;
64799;SDS011;51233;51.982;4.594;2023-05-10T14:51:53;3.63;;;3.33;;
64799;SDS011;51233;51.982;4.594;2023-05-10T14:54:53;3.67;;;2.88;;
64799;SDS011;51233;51.982;4.594;2023-05-10T14:57:53;3.95;;;2.60;;
64799;SDS011;51233;51.982;4.594;2023-05-10T15:00:54;3.40;;;3.10;;
64799;SDS011;51233;51.982;4.594;2023-05-10T15:03:54;2.03;;;1.90;;
64799;SDS011;51233;51.982;4.594;2023-05-10T15:06:57;2.50;;;2.30;;
64799;SDS011;51233;51.982;4.594;2023-05-10T15:12:59;3.00;;;2.63;;
64799;SDS011;51233;51.982;4.594;2023-05-10T15:15:59;2.67;;;2.47;;
64799;SDS011;51233;51.982;4.594;2023-05-10T15:18:59;2.67;;;2.47;;
64799;SDS011;51233;51.982;4.594;2023-05-10T15:22:00;2.92;;;2.60;;
64799;SDS011;51233;51.982;4.594;2023-05-10T15:25:01;2.30;;;2.10;;
64799;SDS011;51233;51.982;4.594;2023-05-10T15:28:01;2.53;;;2.33;;
64799;SDS011;51233;51.982;4.594;2023-05-10T15:31:02;1.77;;;1.67;;
64799;SDS011;51233;51.982;4.594;2023-05-10T15:34:03;2.27;;;2.10;;
64799;SDS011;51233;51.982;4.594;2023-05-10T15:37:03;2.00;;;1.80;;
64799;SDS011;51233;51.982;4.594;2023-05-10T15:40:03;1.93;;;1.83;;
64799;SDS011;51233;51.982;4.594;2023-05-10T15:43:03;2.70;;;2.50;;
64799;SDS011;51233;51.982;4.594;2023-05-10T15:46:05;2.13;;;2.00;;
64799;SDS011;51233;51.982;4.594;2023-05-10T15:49:05;3.80;;;1.53;;
64799;SDS011;51233;51.982;4.594;2023-05-10T15:52:06;2.80;;;2.37;;
64799;SDS011;51233;51.982;4.594;2023-05-10T15:55:07;1.60;;;1.50;;
64799;SDS011;51233;51.982;4.594;2023-05-10T15:58:11;1.40;;;1.30;;
64799;SDS011;51233;51.982;4.594;2023-05-10T16:01:11;2.78;;;2.58;;
64799;SDS011;51233;51.982;4.594;2023-05-10T16:04:12;2.92;;;2.72;;
64799;SDS011;51233;51.982;4.594;2023-05-10T16:07:12;3.00;;;2.50;;
64799;SDS011;51233;51.982;4.594;2023-05-10T16:10:12;2.40;;;2.20;;
64799;SDS011;51233;51.982;4.594;2023-05-10T16:13:12;2.33;;;1.98;;
64799;SDS011;51233;51.982;4.594;2023-05-10T16:16:14;1.70;;;1.60;;
64799;SDS011;51233;51.982;4.594;2023-05-10T16:19:14;1.80;;;1.70;;
64799;SDS011;51233;51.982;4.594;2023-05-10T16:22:14;2.10;;;2.00;;
64799;SDS011;51233;51.982;4.594;2023-05-10T16:25:15;1.60;;;1.50;;
64799;SDS011;51233;51.982;4.594;2023-05-10T16:28:18;2.40;;;1.50;;
64799;SDS011;51233;51.982;4.594;2023-05-10T16:31:20;3.72;;;2.25;;
64799;SDS011;51233;51.982;4.594;2023-05-10T16:34:20;1.70;;;1.60;;
64799;SDS011;51233;51.982;4.594;2023-05-10T16:37:23;2.72;;;2.03;;
64799;SDS011;51233;51.982;4.594;2023-05-10T16:40:23;1.03;;;1.03;;
64799;SDS011;51233;51.982;4.594;2023-05-10T16:43:23;1.80;;;1.70;;
64799;SDS011;51233;51.982;4.594;2023-05-10T16:46:23;1.97;;;1.50;;
64799;SDS011;51233;51.982;4.594;2023-05-10T16:49:23;2.20;;;2.10;;
64799;SDS011;51233;51.982;4.594;2023-05-10T16:52:24;1.90;;;1.80;;
64799;SDS011;51233;51.982;4.594;2023-05-10T16:55:27;2.75;;;1.95;;
64799;SDS011;51233;51.982;4.594;2023-05-10T16:58:27;2.65;;;2.45;;
64799;SDS011;51233;51.982;4.594;2023-05-10T17:01:27;2.73;;;2.53;;
64799;SDS011;51233;51.982;4.594;2023-05-10T17:04:27;2.55;;;2.35;;
64799;SDS011;51233;51.982;4.594;2023-05-10T17:07:27;2.30;;;2.10;;
64799;SDS011;51233;51.982;4.594;2023-05-10T17:10:28;3.70;;;3.40;;
64799;SDS011;51233;51.982;4.594;2023-05-10T17:13:28;3.60;;;3.30;;
64799;SDS011;51233;51.982;4.594;2023-05-10T17:16:29;3.60;;;3.30;;
64799;SDS011;51233;51.982;4.594;2023-05-10T17:19:32;3.90;;;3.60;;
64799;SDS011;51233;51.982;4.594;2023-05-10T17:22:32;4.03;;;3.60;;
64799;SDS011;51233;51.982;4.594;2023-05-10T17:25:33;1.90;;;1.80;;
64799;SDS011;51233;51.982;4.594;2023-05-10T17:28:33;2.28;;;1.45;;
64799;SDS011;51233;51.982;4.594;2023-05-10T17:31:36;1.02;;;1.02;;
64799;SDS011;51233;51.982;4.594;2023-05-10T17:34:37;2.15;;;2.03;;
64799;SDS011;51233;51.982;4.594;2023-05-10T17:37:37;2.43;;;1.80;;
64799;SDS011;51233;51.982;4.594;2023-05-10T17:40:41;3.10;;;2.83;;
64799;SDS011;51233;51.982;4.594;2023-05-10T17:43:41;2.13;;;1.95;;
64799;SDS011;51233;51.982;4.594;2023-05-10T17:46:41;2.13;;;1.90;;
64799;SDS011;51233;51.982;4.594;2023-05-10T17:49:47;3.63;;;3.33;;
64799;SDS011;51233;51.982;4.594;2023-05-10T17:52:47;4.30;;;3.78;;
64799;SDS011;51233;51.982;4.594;2023-05-10T17:55:47;2.67;;;1.55;;
64799;SDS011;51233;51.982;4.594;2023-05-10T17:58:51;2.37;;;2.17;;
64799;SDS011;51233;51.982;4.594;2023-05-10T18:01:51;2.60;;;2.40;;
64799;SDS011;51233;51.982;4.594;2023-05-10T18:04:51;4.55;;;4.25;;
64799;SDS011;51233;51.982;4.594;2023-05-10T18:07:51;3.50;;;3.17;;
64799;SDS011;51233;51.982;4.594;2023-05-10T18:10:51;1.40;;;1.30;;
64799;SDS011;51233;51.982;4.594;2023-05-10T18:13:52;1.20;;;1.20;;
64799;SDS011;51233;51.982;4.594;2023-05-10T18:16:52;0.80;;;0.80;;
64799;SDS011;51233;51.982;4.594;2023-05-10T18:19:52;2.83;;;2.20;;
64799;SDS011;51233;51.982;4.594;2023-05-10T18:22:53;1.27;;;1.27;;
64799;SDS011;51233;51.982;4.594;2023-05-10T18:25:54;2.03;;;1.70;;
64799;SDS011;51233;51.982;4.594;2023-05-10T18:28:54;1.67;;;1.50;;
64799;SDS011;51233;51.982;4.594;2023-05-10T18:31:57;1.25;;;1.25;;
64799;SDS011;51233;51.982;4.594;2023-05-10T18:34:57;1.45;;;1.35;;
64799;SDS011;51233;51.982;4.594;2023-05-10T18:37:57;2.53;;;2.33;;
64799;SDS011;51233;51.982;4.594;2023-05-10T18:40:58;1.23;;;0.90;;
64799;SDS011;51233;51.982;4.594;2023-05-10T18:43:58;1.40;;;1.30;;
64799;SDS011;51233;51.982;4.594;2023-05-10T18:46:58;1.50;;;1.40;;
64799;SDS011;51233;51.982;4.594;2023-05-10T18:49:58;1.60;;;1.50;;